createdAt,value
2019-01-20T00:01:47.989Z,23.10
2019-01-20T00:04:14.430Z,22.80
2019-01-20T00:06:41.374Z,20.95
2019-01-20T00:09:09.649Z,21.95
2019-01-20T00:11:36.614Z,22.52
2019-01-20T00:14:03.613Z,22.90
2019-01-20T00:16:30.209Z,22.37
2019-01-20T00:18:56.760Z,22.25
2019-01-20T00:21:23.105Z,21.12
2019-01-20T00:23:49.420Z,23.35
2019-01-20T00:26:15.957Z,24.75
2019-01-20T00:28:42.463Z,23.20
2019-01-20T00:31:09.238Z,24.12
2019-01-20T00:33:36.252Z,26.25
2019-01-20T00:36:02.960Z,28.40
2019-01-20T00:38:29.472Z,26.90
2019-01-20T00:40:56.150Z,24.32
2019-01-20T00:43:22.729Z,23.55
2019-01-20T00:45:49.544Z,21.87
2019-01-20T00:48:15.911Z,22.20
2019-01-20T00:50:42.437Z,22.32
2019-01-20T00:53:09.140Z,22.80
2019-01-20T00:55:36.106Z,22.50
2019-01-20T00:58:03.399Z,22.90
2019-01-20T01:00:31.510Z,23.22
2019-01-20T01:02:58.130Z,22.60
2019-01-20T01:05:24.798Z,23.10
2019-01-20T01:07:53.411Z,25.15
2019-01-20T01:10:20.551Z,22.82
2019-01-20T01:12:48.110Z,23.62
2019-01-20T01:15:20.819Z,24.98
2019-01-20T01:17:48.091Z,23.83
2019-01-20T01:20:18.855Z,26.23
2019-01-20T01:22:45.929Z,23.38
2019-01-20T01:25:14.079Z,22.58
2019-01-20T01:27:47.186Z,23.83
2019-01-20T01:30:19.874Z,22.73
2019-01-20T01:32:47.199Z,22.75
2019-01-20T01:35:13.852Z,24.87
2019-01-20T01:37:40.496Z,24.12
2019-01-20T01:40:09.851Z,25.35
2019-01-20T01:42:36.315Z,26.02
2019-01-20T01:45:06.310Z,25.90
2019-01-20T01:47:32.800Z,23.95
2019-01-20T01:49:59.721Z,25.43
2019-01-20T01:52:26.087Z,24.55
2019-01-20T01:54:52.559Z,23.15
2019-01-20T01:57:19.184Z,25.57
2019-01-20T01:59:45.584Z,25.60
2019-01-20T02:02:12.187Z,39.42
2019-01-20T02:04:38.893Z,26.42
2019-01-20T02:07:05.500Z,25.77
2019-01-20T02:09:32.180Z,25.17
2019-01-20T02:11:58.797Z,24.60
2019-01-20T02:14:25.236Z,27.82
2019-01-20T02:16:51.776Z,24.15
2019-01-20T02:19:18.309Z,24.60
2019-01-20T02:21:45.048Z,24.87
2019-01-20T02:24:11.486Z,24.57
2019-01-20T02:26:38.149Z,27.62
2019-01-20T02:29:05.898Z,26.80
2019-01-20T02:31:33.005Z,26.75
2019-01-20T02:33:59.527Z,26.70
2019-01-20T02:36:26.102Z,25.82
2019-01-20T02:38:52.528Z,27.30
2019-01-20T02:41:18.962Z,26.33
2019-01-20T02:43:45.432Z,27.13
2019-01-20T02:46:12.365Z,26.57
2019-01-20T02:48:39.085Z,25.35
2019-01-20T02:51:08.850Z,28.27
2019-01-20T02:53:39.120Z,25.55
2019-01-20T02:56:05.697Z,26.97
2019-01-20T02:58:32.135Z,28.00
2019-01-20T03:00:58.566Z,26.82
2019-01-20T03:03:24.908Z,27.30
2019-01-20T03:05:51.621Z,26.55
2019-01-20T03:08:18.477Z,27.75
2019-01-20T03:10:45.189Z,27.00
2019-01-20T03:13:11.735Z,28.50
2019-01-20T03:15:38.972Z,29.80
2019-01-20T03:18:05.647Z,28.15
2019-01-20T03:20:32.302Z,28.27
2019-01-20T03:22:58.802Z,27.30
2019-01-20T03:25:25.329Z,28.67
2019-01-20T03:27:52.318Z,27.62
2019-01-20T03:30:20.690Z,28.85
2019-01-20T03:32:47.203Z,26.55
2019-01-20T03:35:15.421Z,28.07
2019-01-20T03:37:42.045Z,27.25
2019-01-20T03:40:11.961Z,28.57
2019-01-20T03:42:38.391Z,27.50
2019-01-20T03:45:09.242Z,27.45
2019-01-20T03:47:35.699Z,27.50
2019-01-20T03:50:03.369Z,27.40
2019-01-20T03:52:29.832Z,26.70
2019-01-20T03:54:56.346Z,29.37
2019-01-20T03:57:23.038Z,29.20
2019-01-20T03:59:50.197Z,27.87
2019-01-20T04:02:18.734Z,27.85
2019-01-20T04:04:45.368Z,26.93
2019-01-20T04:07:11.969Z,28.62
2019-01-20T04:09:38.997Z,28.27
2019-01-20T04:12:05.663Z,27.82
2019-01-20T04:14:32.315Z,28.17
2019-01-20T04:16:58.862Z,28.57
2019-01-20T04:19:25.426Z,30.10
2019-01-20T04:21:51.908Z,30.08
2019-01-20T04:24:18.480Z,31.87
2019-01-20T04:26:45.080Z,30.10
2019-01-20T04:29:11.757Z,29.60
2019-01-20T04:31:38.301Z,29.52
2019-01-20T04:34:05.372Z,30.10
2019-01-20T04:36:31.940Z,31.62
2019-01-20T04:38:58.389Z,30.55
2019-01-20T04:41:25.155Z,30.50
2019-01-20T04:43:51.962Z,29.42
2019-01-20T04:46:18.632Z,28.92
2019-01-20T04:48:45.173Z,29.70
2019-01-20T04:51:11.670Z,30.95
2019-01-20T04:53:38.668Z,30.40
2019-01-20T04:56:05.277Z,30.85
2019-01-20T04:58:31.727Z,31.10
2019-01-20T05:00:59.292Z,30.60
2019-01-20T05:03:25.686Z,31.12
2019-01-20T05:05:52.149Z,30.62
2019-01-20T05:08:18.562Z,28.02
2019-01-20T05:10:45.481Z,28.47
2019-01-20T05:13:14.943Z,28.70
2019-01-20T05:15:41.399Z,28.12
2019-01-20T05:18:10.718Z,29.52
2019-01-20T05:20:37.431Z,27.93
2019-01-20T05:23:04.033Z,30.50
2019-01-20T05:25:33.220Z,27.73
2019-01-20T05:28:03.207Z,29.18
2019-01-20T05:30:29.638Z,27.77
2019-01-20T05:32:56.136Z,28.62
2019-01-20T05:35:22.631Z,28.77
2019-01-20T05:37:49.148Z,26.52
2019-01-20T05:40:20.784Z,28.90
2019-01-20T05:42:50.143Z,26.82
2019-01-20T05:45:19.966Z,29.15
2019-01-20T05:47:46.594Z,27.35
2019-01-20T05:50:14.335Z,29.30
2019-01-20T05:52:41.031Z,27.35
2019-01-20T05:55:10.244Z,28.30
2019-01-20T05:57:39.680Z,27.80
2019-01-20T06:00:15.975Z,28.73
2019-01-20T06:02:42.840Z,27.25
2019-01-20T06:05:09.361Z,29.80
2019-01-20T06:07:36.086Z,28.57
2019-01-20T06:10:05.723Z,26.25
2019-01-20T06:12:32.279Z,26.90
2019-01-20T06:14:58.843Z,27.45
2019-01-20T06:17:25.457Z,27.60
2019-01-20T06:19:52.234Z,27.32
2019-01-20T06:22:18.859Z,26.97
2019-01-20T06:24:45.441Z,26.87
2019-01-20T06:27:12.066Z,27.13
2019-01-20T06:29:38.794Z,27.02
2019-01-20T06:32:05.434Z,26.48
2019-01-20T06:34:32.851Z,27.77
2019-01-20T06:36:59.337Z,27.93
2019-01-20T06:39:25.838Z,27.52
2019-01-20T06:41:52.440Z,28.50
2019-01-20T06:44:18.919Z,28.67
2019-01-20T06:46:45.368Z,28.50
2019-01-20T06:49:11.930Z,27.30
2019-01-20T06:51:38.598Z,25.65
2019-01-20T06:54:05.780Z,26.95
2019-01-20T06:56:32.487Z,27.37
2019-01-20T06:58:58.874Z,27.10
2019-01-20T07:01:25.593Z,28.30
2019-01-20T07:03:52.048Z,27.70
2019-01-20T07:06:18.964Z,25.40
2019-01-20T07:08:45.600Z,27.32
2019-01-20T07:11:12.619Z,27.52
2019-01-20T07:13:39.623Z,26.27
2019-01-20T07:16:06.205Z,28.52
2019-01-20T07:18:33.096Z,28.75
2019-01-20T07:20:59.928Z,28.67
2019-01-20T07:23:26.586Z,27.85
2019-01-20T07:25:53.356Z,27.85
2019-01-20T07:28:19.891Z,25.45
2019-01-20T07:30:46.424Z,25.80
2019-01-20T07:33:13.186Z,25.17
2019-01-20T07:35:39.918Z,25.27
2019-01-20T07:38:06.474Z,26.57
2019-01-20T07:40:35.041Z,25.70
2019-01-20T07:43:01.949Z,26.20
2019-01-20T07:45:28.413Z,26.10
2019-01-20T07:47:55.420Z,25.90
2019-01-20T07:50:24.033Z,27.65
2019-01-20T07:52:50.548Z,28.52
2019-01-20T07:55:17.499Z,28.17
2019-01-20T07:57:44.496Z,30.27
2019-01-20T08:00:16.236Z,28.02
2019-01-20T08:02:42.785Z,28.10
2019-01-20T08:05:09.904Z,30.88
2019-01-20T08:07:36.387Z,32.28
2019-01-20T08:10:35.638Z,33.53
2019-01-20T08:13:03.471Z,32.08
2019-01-20T08:15:30.214Z,29.95
2019-01-20T08:17:56.660Z,27.65
2019-01-20T08:20:24.016Z,30.88
2019-01-20T08:22:52.419Z,30.97
2019-01-20T08:25:19.661Z,30.80
2019-01-20T08:27:46.231Z,31.75
2019-01-20T08:30:17.659Z,32.48
2019-01-20T08:32:47.564Z,31.33
2019-01-20T08:35:14.310Z,28.00
2019-01-20T08:37:40.756Z,28.38
2019-01-20T08:40:10.734Z,30.08
2019-01-20T08:42:37.908Z,35.55
2019-01-20T08:45:09.007Z,33.58
2019-01-20T08:47:37.954Z,32.70
2019-01-20T08:50:07.955Z,32.88
2019-01-20T08:52:34.414Z,29.42
2019-01-20T08:55:02.679Z,29.95
2019-01-20T08:57:29.381Z,27.48
2019-01-20T08:59:56.152Z,27.87
2019-01-20T09:02:23.243Z,26.60
2019-01-20T09:04:49.693Z,29.25
2019-01-20T09:07:16.264Z,26.90
2019-01-20T09:09:43.136Z,27.05
2019-01-20T09:12:10.284Z,24.92
2019-01-20T09:14:36.995Z,26.48
2019-01-20T09:17:03.573Z,26.52
2019-01-20T09:19:30.236Z,30.40
2019-01-20T09:21:57.125Z,34.18
2019-01-20T09:24:23.421Z,30.37
2019-01-20T09:26:50.392Z,26.02
2019-01-20T09:29:17.069Z,28.45
2019-01-20T09:31:43.527Z,27.32
2019-01-20T09:34:10.097Z,25.75
2019-01-20T09:36:36.679Z,23.75
2019-01-20T09:39:08.807Z,23.75
2019-01-20T09:41:35.969Z,22.42
2019-01-20T09:44:02.659Z,23.38
2019-01-20T09:46:30.152Z,25.05
2019-01-20T09:48:56.859Z,23.75
2019-01-20T09:51:23.385Z,24.87
2019-01-20T09:53:49.834Z,25.12
2019-01-20T09:56:16.666Z,24.55
2019-01-20T09:58:43.806Z,26.00
2019-01-20T10:01:10.519Z,23.52
2019-01-20T10:03:37.168Z,28.17
2019-01-20T10:06:03.814Z,26.52
2019-01-20T10:08:30.885Z,26.25
2019-01-20T10:10:57.260Z,27.95
2019-01-20T10:13:27.166Z,28.45
2019-01-20T10:15:53.530Z,29.02
2019-01-20T10:18:20.680Z,30.92
2019-01-20T10:20:47.201Z,27.70
2019-01-20T10:23:14.446Z,28.57
2019-01-20T10:25:41.494Z,27.02
2019-01-20T10:28:09.067Z,27.37
2019-01-20T10:30:39.623Z,28.30
2019-01-20T10:33:06.644Z,26.85
2019-01-20T10:35:35.247Z,27.80
2019-01-20T10:38:04.330Z,26.33
2019-01-20T10:40:32.306Z,27.10
2019-01-20T10:42:58.835Z,26.80
2019-01-20T10:45:27.062Z,26.20
2019-01-20T10:47:53.829Z,26.80
2019-01-20T10:50:20.392Z,25.17
2019-01-20T10:52:47.356Z,26.75
2019-01-20T10:55:13.815Z,23.90
2019-01-20T10:57:40.673Z,26.30
2019-01-20T11:00:19.652Z,28.40
2019-01-20T11:02:46.224Z,25.23
2019-01-20T11:05:13.201Z,24.05
2019-01-20T11:07:39.872Z,24.63
2019-01-20T11:10:09.699Z,22.35
2019-01-20T11:12:45.369Z,23.47
2019-01-20T11:15:14.436Z,23.60
2019-01-20T11:17:41.138Z,21.50
2019-01-20T11:20:10.840Z,20.35
2019-01-20T11:22:38.813Z,22.27
2019-01-20T11:25:09.168Z,21.12
2019-01-20T11:27:35.678Z,20.20
2019-01-20T11:30:04.260Z,21.45
2019-01-20T11:32:30.847Z,20.55
2019-01-20T11:34:57.356Z,21.70
2019-01-20T11:37:23.962Z,22.05
2019-01-20T11:39:52.015Z,21.27
2019-01-20T11:42:18.614Z,21.85
2019-01-20T11:44:45.360Z,21.02
2019-01-20T11:47:12.053Z,21.97
2019-01-20T11:49:38.905Z,22.70
2019-01-20T11:52:05.555Z,24.72
2019-01-20T11:54:32.189Z,22.22
2019-01-20T11:56:58.958Z,25.52
2019-01-20T11:59:25.226Z,24.43
2019-01-20T12:01:51.850Z,25.88
2019-01-20T12:04:18.807Z,25.27
2019-01-20T12:06:45.267Z,27.45
2019-01-20T12:09:12.521Z,27.60
2019-01-20T12:11:38.988Z,25.25
2019-01-20T12:14:05.488Z,24.15
2019-01-20T12:16:31.986Z,25.57
2019-01-20T12:18:58.473Z,29.23
2019-01-20T12:21:24.868Z,24.63
2019-01-20T12:23:54.463Z,24.50
2019-01-20T12:26:21.361Z,26.45
2019-01-20T12:28:47.922Z,26.75
2019-01-20T12:31:14.406Z,25.60
2019-01-20T12:33:44.553Z,26.35
2019-01-20T12:36:11.359Z,24.05
2019-01-20T12:38:38.175Z,24.77
2019-01-20T12:41:06.626Z,23.00
2019-01-20T12:43:33.805Z,22.77
2019-01-20T12:46:00.985Z,24.57
2019-01-20T12:48:27.479Z,23.10
2019-01-20T12:50:54.070Z,24.45
2019-01-20T12:53:21.022Z,25.70
2019-01-20T12:55:47.499Z,24.60
2019-01-20T12:58:14.194Z,24.20
2019-01-20T13:00:41.295Z,23.83
2019-01-20T13:03:08.391Z,23.00
2019-01-20T13:05:34.911Z,23.87
2019-01-20T13:08:01.802Z,24.25
2019-01-20T13:10:28.078Z,24.35
2019-01-20T13:12:54.665Z,25.20
2019-01-20T13:15:22.600Z,24.72
2019-01-20T13:17:49.173Z,25.30
2019-01-20T13:20:20.170Z,25.72
2019-01-20T13:22:46.689Z,25.90
2019-01-20T13:25:17.145Z,25.05
2019-01-20T13:27:43.998Z,24.72
2019-01-20T13:30:16.444Z,24.00
2019-01-20T13:32:43.665Z,24.57
2019-01-20T13:35:10.893Z,23.98
2019-01-20T13:37:40.993Z,26.45
2019-01-20T13:40:21.751Z,24.80
2019-01-20T13:42:48.906Z,24.05
2019-01-20T13:45:15.671Z,25.95
2019-01-20T13:47:48.455Z,25.02
2019-01-20T13:50:14.135Z,22.20
2019-01-20T13:52:41.222Z,24.63
2019-01-20T13:55:10.637Z,24.15
2019-01-20T13:57:43.720Z,23.22
2019-01-20T14:00:31.303Z,22.00
2019-01-20T14:03:05.119Z,23.40
2019-01-20T14:05:34.981Z,23.30
2019-01-20T14:08:02.169Z,22.07
2019-01-20T14:10:29.783Z,21.05
2019-01-20T14:12:56.346Z,21.50
2019-01-20T14:15:22.655Z,23.25
2019-01-20T14:17:49.086Z,20.62
2019-01-20T14:20:21.925Z,20.77
2019-01-20T14:22:48.581Z,20.85
2019-01-20T14:25:18.828Z,21.45
2019-01-20T14:27:48.289Z,23.92
2019-01-20T14:30:17.919Z,24.27
2019-01-20T14:32:44.507Z,24.30
2019-01-20T14:35:11.604Z,22.15
2019-01-20T14:37:38.347Z,24.23
2019-01-20T14:40:11.279Z,24.35
2019-01-20T14:42:37.808Z,23.18
2019-01-20T14:45:07.579Z,23.02
2019-01-20T14:47:34.282Z,23.92
2019-01-20T14:50:00.833Z,23.07
2019-01-20T14:52:27.554Z,23.85
2019-01-20T14:54:54.030Z,24.10
2019-01-20T14:57:20.696Z,23.55
2019-01-20T14:59:47.411Z,24.50
2019-01-20T15:02:14.529Z,24.67
2019-01-20T15:04:42.650Z,23.80
2019-01-20T15:07:09.064Z,24.18
2019-01-20T15:09:35.928Z,24.63
2019-01-20T15:12:02.512Z,23.98
2019-01-20T15:14:28.952Z,23.67
2019-01-20T15:16:55.547Z,27.00
2019-01-20T15:19:25.051Z,24.12
2019-01-20T15:21:51.577Z,26.12
2019-01-20T15:24:18.127Z,23.67
2019-01-20T15:29:38.034Z,27.00
2019-01-20T15:32:05.091Z,27.15
2019-01-20T15:34:32.145Z,27.37
2019-01-20T15:36:58.477Z,29.10
2019-01-20T15:39:25.180Z,29.82
2019-01-20T15:41:52.293Z,27.48
2019-01-20T15:44:19.095Z,28.12
2019-01-20T15:46:45.535Z,25.62
2019-01-20T15:49:12.807Z,25.72
2019-01-20T15:51:43.054Z,25.02
2019-01-20T15:54:09.591Z,25.55
2019-01-20T15:56:42.908Z,24.25
2019-01-20T15:59:09.375Z,25.82
2019-01-20T16:01:35.806Z,25.90
2019-01-20T16:04:02.419Z,25.88
2019-01-20T16:06:28.674Z,26.73
2019-01-20T16:08:54.964Z,26.05
2019-01-20T16:11:21.743Z,27.20
2019-01-20T16:13:48.426Z,26.48
2019-01-20T16:16:15.315Z,24.87
2019-01-20T16:18:41.765Z,26.23
2019-01-20T16:21:08.423Z,27.87
2019-01-20T16:23:34.967Z,27.20
2019-01-20T16:26:01.521Z,23.70
2019-01-20T16:28:27.856Z,25.12
2019-01-20T16:30:54.628Z,23.77
2019-01-20T16:33:24.928Z,22.70
2019-01-20T16:35:51.256Z,25.65
2019-01-20T16:38:18.197Z,24.15
2019-01-20T16:40:44.686Z,23.35
2019-01-20T16:43:11.459Z,23.80
2019-01-20T16:45:42.042Z,22.02
2019-01-20T16:48:08.375Z,21.10
2019-01-20T16:50:35.964Z,23.05
2019-01-20T16:53:02.682Z,21.68
2019-01-20T16:55:29.509Z,23.15
2019-01-20T16:57:55.787Z,23.22
2019-01-20T17:00:24.520Z,22.20
2019-01-20T17:02:51.430Z,20.92
2019-01-20T17:05:21.139Z,22.30
2019-01-20T17:07:47.971Z,22.13
2019-01-20T17:10:40.124Z,23.30
2019-01-20T17:13:08.069Z,22.75
2019-01-20T17:15:39.891Z,24.20
2019-01-20T17:18:07.236Z,22.58
2019-01-20T17:20:35.089Z,25.68
2019-01-20T17:23:01.960Z,23.75
2019-01-20T17:25:28.616Z,23.22
2019-01-20T17:27:58.737Z,22.60
2019-01-20T17:30:28.847Z,24.00
2019-01-20T17:32:55.308Z,25.20
2019-01-20T17:35:21.905Z,24.35
2019-01-20T17:37:49.657Z,24.23
2019-01-20T17:40:21.671Z,25.45
2019-01-20T17:42:48.736Z,25.00
2019-01-20T17:45:19.240Z,24.05
2019-01-20T17:47:45.679Z,23.55
2019-01-20T17:50:18.378Z,25.05
2019-01-20T17:52:45.114Z,23.90
2019-01-20T17:55:11.772Z,23.92
2019-01-20T17:57:38.852Z,25.25
2019-01-20T18:00:15.686Z,24.87
2019-01-20T18:02:42.388Z,25.08
2019-01-20T18:05:12.280Z,24.43
2019-01-20T18:07:38.982Z,25.40
2019-01-20T18:10:08.801Z,23.20
2019-01-20T18:12:35.394Z,26.17
2019-01-20T18:15:02.530Z,25.72
2019-01-20T18:17:28.962Z,25.40
2019-01-20T18:19:55.392Z,24.50
2019-01-20T18:22:21.939Z,26.42
2019-01-20T18:24:49.236Z,24.70
2019-01-20T18:27:15.759Z,28.27
2019-01-20T18:29:42.429Z,25.85
2019-01-20T18:32:09.302Z,25.85
2019-01-20T18:34:35.697Z,26.60
2019-01-20T18:37:02.539Z,24.65
2019-01-20T18:39:29.030Z,25.72
2019-01-20T18:41:55.335Z,25.00
2019-01-20T18:44:22.039Z,25.17
2019-01-20T18:46:48.777Z,25.60
2019-01-20T18:49:15.466Z,25.72
2019-01-20T18:51:41.942Z,26.05
2019-01-20T18:54:08.496Z,25.02
2019-01-20T18:56:35.163Z,25.02
2019-01-20T18:59:01.625Z,24.75
2019-01-20T19:01:28.120Z,24.85
2019-01-20T19:03:56.729Z,27.15
2019-01-20T19:06:23.209Z,26.10
2019-01-20T19:08:50.243Z,25.80
2019-01-20T19:11:17.149Z,24.43
2019-01-20T19:13:44.011Z,25.30
2019-01-20T19:16:10.607Z,24.90
2019-01-20T19:18:37.198Z,26.50
2019-01-20T19:21:03.930Z,25.62
2019-01-20T19:23:30.615Z,24.45
2019-01-20T19:25:58.317Z,24.12
2019-01-20T19:28:27.029Z,26.60
2019-01-20T19:30:55.314Z,24.52
2019-01-20T19:33:21.578Z,23.85
2019-01-20T19:35:48.058Z,24.25
2019-01-20T19:38:14.702Z,23.65
2019-01-20T19:40:41.348Z,24.63
2019-01-20T19:43:08.448Z,22.82
2019-01-20T19:45:35.850Z,24.75
2019-01-20T19:48:02.533Z,25.65
2019-01-20T19:50:29.207Z,27.73
2019-01-20T19:52:55.720Z,23.80
2019-01-20T19:55:26.492Z,26.57
2019-01-20T19:57:54.892Z,27.42
2019-01-20T20:00:27.118Z,27.02
2019-01-20T20:02:53.584Z,26.27
2019-01-20T20:05:21.144Z,27.65
2019-01-20T20:07:48.135Z,26.45
2019-01-20T20:10:20.250Z,27.22
2019-01-20T20:12:47.075Z,29.52
2019-01-20T20:15:16.692Z,27.70
2019-01-20T20:17:43.611Z,26.77
2019-01-20T20:20:15.341Z,26.05
2019-01-20T20:22:41.744Z,28.77
2019-01-20T20:25:13.209Z,27.85
2019-01-20T20:27:39.599Z,26.48
2019-01-20T20:30:13.163Z,26.27
2019-01-20T20:32:42.407Z,27.50
2019-01-20T20:35:09.288Z,26.55
2019-01-20T20:37:35.824Z,25.68
2019-01-20T20:40:05.920Z,28.27
2019-01-20T20:42:33.790Z,25.95
2019-01-20T20:45:01.242Z,25.23
2019-01-20T20:47:27.580Z,25.37
2019-01-20T20:49:56.981Z,25.80
2019-01-20T20:52:23.712Z,25.70
2019-01-20T20:54:50.022Z,26.10
2019-01-20T20:57:16.445Z,28.20
2019-01-20T20:59:54.674Z,25.35
2019-01-20T21:02:20.138Z,24.75
2019-01-20T21:04:46.405Z,25.48
2019-01-20T21:07:13.492Z,26.00
2019-01-20T21:09:39.944Z,25.75
2019-01-20T21:12:06.429Z,26.30
2019-01-20T21:14:33.420Z,25.90
2019-01-20T21:17:00.105Z,24.23
2019-01-20T21:19:26.921Z,26.00
2019-01-20T21:21:53.191Z,25.68
2019-01-20T21:24:19.477Z,26.93
2019-01-20T21:26:48.502Z,28.35
2019-01-20T21:29:14.830Z,25.57
2019-01-20T21:31:41.749Z,25.30
2019-01-20T21:34:07.979Z,25.10
2019-01-20T21:36:34.289Z,24.95
2019-01-20T21:39:01.462Z,24.70
2019-01-20T21:41:28.079Z,25.25
2019-01-20T21:43:55.081Z,26.70
2019-01-20T21:46:21.717Z,25.37
2019-01-20T21:48:48.460Z,25.52
2019-01-20T21:51:15.219Z,26.10
2019-01-20T21:53:41.903Z,24.85
2019-01-20T21:56:08.731Z,25.40
2019-01-20T21:58:35.262Z,27.52
2019-01-20T22:01:01.786Z,26.60
2019-01-20T22:03:28.367Z,27.60
2019-01-20T22:05:55.115Z,25.95
2019-01-20T22:08:21.502Z,24.37
2019-01-20T22:10:48.464Z,24.72
2019-01-20T22:13:15.454Z,27.40
2019-01-20T22:15:42.600Z,25.82
2019-01-20T22:18:09.225Z,25.77
2019-01-20T22:20:36.031Z,27.27
2019-01-20T22:23:03.075Z,29.23
2019-01-20T22:25:30.220Z,25.55
2019-01-20T22:27:57.158Z,24.90
2019-01-20T22:30:24.800Z,25.20
2019-01-20T22:32:51.664Z,28.73
2019-01-20T22:35:18.098Z,28.17
2019-01-20T22:37:45.276Z,28.17
2019-01-20T22:40:14.464Z,26.17
2019-01-20T22:42:46.989Z,25.50
2019-01-20T22:45:23.983Z,24.12
2019-01-20T22:47:53.905Z,26.65
2019-01-20T22:50:22.351Z,27.58
2019-01-20T22:52:49.099Z,29.50
2019-01-20T22:55:16.386Z,28.42
2019-01-20T22:57:43.129Z,28.25
2019-01-20T23:00:13.820Z,28.32
2019-01-20T23:02:40.332Z,27.73
2019-01-20T23:05:07.111Z,28.87
2019-01-20T23:07:34.069Z,28.57
2019-01-20T23:10:00.798Z,29.50
2019-01-20T23:12:28.395Z,31.30
2019-01-20T23:14:58.064Z,28.90
2019-01-20T23:17:24.435Z,27.82
2019-01-20T23:19:50.926Z,28.75
2019-01-20T23:22:17.567Z,28.45
2019-01-20T23:24:44.198Z,27.90
2019-01-20T23:27:10.466Z,26.85
2019-01-20T23:29:37.695Z,27.98
2019-01-20T23:32:04.510Z,26.68
2019-01-20T23:34:30.950Z,30.12
2019-01-20T23:36:59.497Z,28.27
2019-01-20T23:39:27.832Z,28.60
2019-01-20T23:41:54.345Z,28.05
2019-01-20T23:44:21.114Z,27.05
2019-01-20T23:46:47.832Z,28.50
2019-01-20T23:49:14.944Z,29.10
2019-01-20T23:51:41.615Z,28.00
2019-01-20T23:54:08.208Z,30.45
2019-01-20T23:56:34.793Z,29.67
2019-01-20T23:59:01.645Z,27.70
